createdAt,value
2019-01-31T00:02:38.164Z,99046.22
2019-01-31T00:05:27.275Z,99049.20
2019-01-31T00:08:15.371Z,99045.27
2019-01-31T00:10:49.952Z,99043.45
2019-01-31T00:13:21.910Z,99033.73
2019-01-31T00:16:12.600Z,99041.47
2019-01-31T00:18:44.475Z,99040.66
2019-01-31T00:21:19.331Z,99039.55
2019-01-31T00:23:51.025Z,99036.53
2019-01-31T00:26:37.018Z,99038.45
2019-01-31T00:29:17.313Z,99041.28
2019-01-31T00:32:22.204Z,99046.78
2019-01-31T00:34:59.483Z,99040.64
2019-01-31T00:37:40.098Z,99051.34
2019-01-31T00:40:26.911Z,99065.47
2019-01-31T00:43:04.219Z,99062.66
2019-01-31T00:45:53.961Z,99059.98
2019-01-31T00:48:25.589Z,99059.91
2019-01-31T00:51:14.565Z,99056.94
2019-01-31T00:53:55.219Z,99062.99
2019-01-31T00:56:48.637Z,99059.98
2019-01-31T00:59:42.900Z,99062.81
2019-01-31T01:02:20.038Z,99067.98
2019-01-31T01:04:54.633Z,99068.19
2019-01-31T01:07:49.046Z,99070.32
2019-01-31T01:10:20.956Z,99070.38
2019-01-31T01:12:54.993Z,99078.36
2019-01-31T01:15:55.972Z,99076.94
2019-01-31T01:18:42.724Z,99075.82
2019-01-31T01:21:23.535Z,99076.85
2019-01-31T01:24:01.030Z,99072.89
2019-01-31T01:26:53.454Z,99073.25
2019-01-31T01:29:25.091Z,99076.94
2019-01-31T01:32:18.011Z,99077.55
2019-01-31T01:35:06.156Z,99079.83
2019-01-31T01:37:58.702Z,99074.39
2019-01-31T01:40:45.261Z,99079.50
2019-01-31T01:43:43.896Z,99082.23
2019-01-31T01:46:30.466Z,99083.03
2019-01-31T01:49:04.850Z,99082.55
2019-01-31T01:51:42.824Z,99089.20
2019-01-31T01:54:26.385Z,99090.49
2019-01-31T01:57:07.320Z,99087.33
2019-01-31T01:59:53.940Z,99087.48
2019-01-31T02:02:37.503Z,99081.84
2019-01-31T02:05:12.087Z,99077.64
2019-01-31T02:07:52.070Z,99078.28
2019-01-31T02:10:29.416Z,99083.48
2019-01-31T02:13:09.135Z,99078.58
2019-01-31T02:15:43.685Z,99084.47
2019-01-31T02:18:15.587Z,99086.10
2019-01-31T02:20:56.313Z,99075.31
2019-01-31T02:23:39.515Z,99081.85
2019-01-31T02:26:26.057Z,99078.87
2019-01-31T02:29:06.864Z,99077.48
2019-01-31T02:31:38.481Z,99077.78
2019-01-31T02:34:26.662Z,99056.28
2019-01-31T02:37:13.464Z,99075.59
2019-01-31T02:39:45.106Z,99072.94
2019-01-31T02:42:34.766Z,99073.47
2019-01-31T02:45:11.892Z,99077.34
2019-01-31T02:47:52.228Z,99083.14
2019-01-31T02:50:29.524Z,99086.30
2019-01-31T02:53:37.748Z,99093.80
2019-01-31T02:56:25.931Z,99086.99
2019-01-31T02:59:03.680Z,99086.15
2019-01-31T03:01:40.993Z,99091.84
2019-01-31T03:04:18.138Z,99081.45
2019-01-31T03:06:58.587Z,99082.58
2019-01-31T03:09:54.914Z,99083.12
2019-01-31T03:12:28.824Z,99087.33
2019-01-31T03:15:00.454Z,99079.36
2019-01-31T03:17:50.210Z,99090.26
2019-01-31T03:20:38.825Z,99090.81
2019-01-31T03:23:19.036Z,99085.47
2019-01-31T03:25:50.654Z,99095.70
2019-01-31T03:28:28.146Z,99090.64
2019-01-31T03:31:09.062Z,99086.32
2019-01-31T03:33:43.470Z,99088.45
2019-01-31T03:36:21.576Z,99092.89
2019-01-31T03:39:17.173Z,99090.66
2019-01-31T03:41:51.437Z,99101.50
2019-01-31T03:44:31.889Z,99098.26
2019-01-31T03:47:09.221Z,99098.26
2019-01-31T03:49:43.475Z,99099.35
2019-01-31T03:52:24.321Z,99103.55
2019-01-31T03:54:55.924Z,99106.33
2019-01-31T03:57:45.748Z,99107.30
2019-01-31T04:00:32.368Z,99106.54
2019-01-31T04:03:06.903Z,99105.09
2019-01-31T04:05:39.246Z,99115.16
2019-01-31T04:08:07.596Z,99114.22
2019-01-31T04:10:35.975Z,99117.73
2019-01-31T04:13:04.418Z,99124.02
2019-01-31T04:15:32.795Z,99122.58
2019-01-31T04:18:01.151Z,99125.74
2019-01-31T04:20:29.504Z,99120.62
2019-01-31T04:22:57.870Z,99126.77
2019-01-31T04:25:26.246Z,99126.42
2019-01-31T04:27:54.600Z,99129.55
2019-01-31T04:30:22.956Z,99125.41
2019-01-31T04:32:51.354Z,99126.16
2019-01-31T04:35:19.735Z,99134.16
2019-01-31T04:37:48.140Z,99134.98
2019-01-31T04:40:16.601Z,99138.00
2019-01-31T04:42:45.010Z,99143.11
2019-01-31T04:45:13.399Z,99135.45
2019-01-31T04:47:41.809Z,99135.07
2019-01-31T04:50:13.101Z,99143.17
2019-01-31T04:52:41.562Z,99139.24
2019-01-31T04:55:09.947Z,99140.03
2019-01-31T04:57:38.304Z,99138.44
2019-01-31T05:00:15.715Z,99137.55
2019-01-31T05:02:44.083Z,99139.19
2019-01-31T05:05:12.470Z,99144.09
2019-01-31T05:07:40.847Z,99146.56
2019-01-31T05:10:11.456Z,99145.83
2019-01-31T05:12:39.961Z,99148.25
2019-01-31T05:15:11.059Z,99151.77
2019-01-31T05:17:39.427Z,99154.63
2019-01-31T05:20:11.057Z,99160.31
2019-01-31T05:22:39.414Z,99162.14
2019-01-31T05:25:09.697Z,99155.05
2019-01-31T05:27:38.390Z,99160.28
2019-01-31T05:30:09.642Z,99163.95
2019-01-31T05:32:38.146Z,99161.97
2019-01-31T05:35:07.503Z,99165.48
2019-01-31T05:37:36.099Z,99165.13
2019-01-31T05:40:07.375Z,99166.72
2019-01-31T05:42:35.768Z,99170.16
2019-01-31T05:45:06.817Z,99168.84
2019-01-31T05:47:35.182Z,99173.42
2019-01-31T05:50:04.452Z,99167.63
2019-01-31T05:52:32.827Z,99156.88
2019-01-31T05:55:01.167Z,99163.73
2019-01-31T05:57:29.528Z,99156.47
2019-01-31T05:59:57.886Z,99129.16
2019-01-31T06:02:26.268Z,99163.37
2019-01-31T06:04:54.619Z,99165.94
2019-01-31T06:07:22.968Z,99167.04
2019-01-31T06:09:51.326Z,99174.37
2019-01-31T06:12:19.708Z,99169.91
2019-01-31T06:14:48.062Z,99175.41
2019-01-31T06:17:16.462Z,99173.13
2019-01-31T06:19:44.820Z,99177.44
2019-01-31T06:22:13.257Z,99176.98
2019-01-31T06:24:41.620Z,99193.48
2019-01-31T06:27:09.954Z,99190.50
2019-01-31T06:29:39.904Z,99196.70
2019-01-31T06:32:08.282Z,99198.48
2019-01-31T06:34:36.733Z,99203.78
2019-01-31T06:37:05.092Z,99208.39
2019-01-31T06:39:33.463Z,99208.23
2019-01-31T06:42:01.877Z,99212.30
2019-01-31T06:44:30.222Z,99212.27
2019-01-31T06:46:58.594Z,99220.23
2019-01-31T06:49:27.953Z,99220.58
2019-01-31T06:51:56.309Z,99224.30
2019-01-31T06:54:24.731Z,99231.23
2019-01-31T06:56:53.102Z,99227.86
2019-01-31T06:59:21.441Z,99208.36
2019-01-31T07:01:49.965Z,99235.30
2019-01-31T07:04:18.422Z,99235.99
2019-01-31T07:06:46.749Z,99240.63
2019-01-31T07:09:15.123Z,99211.06
2019-01-31T07:11:43.556Z,99245.78
2019-01-31T07:14:11.934Z,99244.23
2019-01-31T07:16:40.573Z,99249.38
2019-01-31T07:19:09.021Z,99263.35
2019-01-31T07:21:37.401Z,99258.55
2019-01-31T07:24:05.786Z,99260.33
2019-01-31T07:26:34.186Z,99263.16
2019-01-31T07:29:02.556Z,99260.53
2019-01-31T07:31:30.943Z,99264.09
2019-01-31T07:33:59.326Z,99270.28
2019-01-31T07:36:27.703Z,99265.33
2019-01-31T07:38:56.053Z,99270.13
2019-01-31T07:41:24.429Z,99274.72
2019-01-31T07:43:54.434Z,99273.64
2019-01-31T07:46:22.817Z,99272.75
2019-01-31T07:48:51.409Z,99272.25
2019-01-31T07:51:19.806Z,99271.39
2019-01-31T07:53:48.166Z,99279.68
2019-01-31T07:56:16.588Z,99280.56
2019-01-31T07:58:45.026Z,99274.38
2019-01-31T08:01:13.409Z,99283.90
2019-01-31T08:03:41.767Z,99279.80
2019-01-31T08:06:10.107Z,99285.68
2019-01-31T08:08:38.505Z,99282.50
2019-01-31T08:11:06.902Z,99286.95
2019-01-31T08:13:35.304Z,99291.52
2019-01-31T08:16:05.247Z,99293.30
2019-01-31T08:18:33.574Z,99300.00
2019-01-31T08:21:01.959Z,99297.17
2019-01-31T08:23:30.332Z,99296.47
2019-01-31T08:25:58.691Z,99291.67
2019-01-31T08:28:27.037Z,99290.59
2019-01-31T08:30:55.405Z,99299.97
2019-01-31T08:33:23.796Z,99290.91
2019-01-31T08:35:52.122Z,99291.73
2019-01-31T08:38:20.553Z,99301.45
2019-01-31T08:40:48.889Z,99305.64
2019-01-31T08:43:20.437Z,99307.73
2019-01-31T08:45:47.756Z,99307.34
2019-01-31T08:48:16.150Z,99310.52
2019-01-31T08:50:45.308Z,99308.89
2019-01-31T08:53:13.648Z,99314.74
2019-01-31T08:55:42.058Z,99320.36
2019-01-31T08:58:10.380Z,99316.59
2019-01-31T09:00:38.738Z,99321.17
2019-01-31T09:03:07.176Z,99325.20
2019-01-31T09:05:35.616Z,99327.45
2019-01-31T09:08:03.968Z,99329.73
2019-01-31T09:10:37.653Z,99338.71
2019-01-31T09:13:07.905Z,99335.19
2019-01-31T09:15:36.345Z,99337.13
2019-01-31T09:18:05.135Z,99338.02
2019-01-31T09:20:48.362Z,99336.94
2019-01-31T09:23:32.295Z,99341.55
2019-01-31T09:26:03.892Z,99338.56
2019-01-31T09:28:50.640Z,99336.34
2019-01-31T09:31:44.435Z,99342.00
2019-01-31T09:34:32.630Z,99339.28
2019-01-31T09:37:28.399Z,99338.00
2019-01-31T09:40:08.309Z,99342.81
2019-01-31T09:42:51.580Z,99345.45
2019-01-31T09:45:23.204Z,99343.11
2019-01-31T09:47:54.797Z,99345.16
2019-01-31T09:50:35.523Z,99349.38
2019-01-31T09:53:13.031Z,99350.58
2019-01-31T09:56:17.716Z,99355.69
2019-01-31T09:59:09.012Z,99348.94
2019-01-31T10:01:59.771Z,99354.75
2019-01-31T10:04:55.510Z,99346.06
2019-01-31T10:07:41.742Z,99349.44
2019-01-31T10:10:29.927Z,99346.55
2019-01-31T10:13:16.193Z,99357.52
2019-01-31T10:15:53.811Z,99343.64
2019-01-31T10:18:42.276Z,99343.78
2019-01-31T10:21:16.573Z,99354.55
2019-01-31T10:23:59.948Z,99347.41
2019-01-31T10:26:34.239Z,99339.77
2019-01-31T10:29:11.994Z,99349.64
2019-01-31T10:32:01.421Z,99351.23
2019-01-31T10:34:35.566Z,99348.05
2019-01-31T10:37:16.144Z,99349.29
2019-01-31T10:39:47.754Z,99343.79
2019-01-31T10:42:22.301Z,99347.06
2019-01-31T10:45:08.848Z,99342.24
2019-01-31T10:47:49.421Z,99342.88
2019-01-31T10:50:26.821Z,99340.60
2019-01-31T10:53:19.731Z,99338.63
2019-01-31T10:55:58.406Z,99332.70
2019-01-31T10:58:49.253Z,99333.48
2019-01-31T11:01:26.647Z,99336.61
2019-01-31T11:04:14.975Z,99336.20
2019-01-31T11:07:10.890Z,99331.53
2019-01-31T11:09:47.937Z,99329.59
2019-01-31T11:12:31.137Z,99330.23
2019-01-31T11:15:39.264Z,99327.94
2019-01-31T11:18:22.836Z,99330.18
2019-01-31T11:21:03.157Z,99328.33
2019-01-31T11:23:49.668Z,99325.08
2019-01-31T11:26:21.297Z,99329.28
2019-01-31T11:28:58.902Z,99326.80
2019-01-31T11:31:50.237Z,99327.72
2019-01-31T11:34:32.456Z,99326.36
2019-01-31T11:37:03.796Z,99319.32
2019-01-31T11:39:38.480Z,99326.72
2019-01-31T11:42:16.105Z,99319.86
2019-01-31T11:45:21.234Z,99321.09
2019-01-31T11:47:59.359Z,99318.61
2019-01-31T11:50:45.959Z,99316.95
2019-01-31T11:53:23.377Z,99320.23
2019-01-31T11:56:18.524Z,99307.25
2019-01-31T11:59:04.343Z,99308.42
2019-01-31T12:01:32.927Z,99304.28
2019-01-31T12:04:03.481Z,99300.48
2019-01-31T12:06:31.905Z,99304.01
2019-01-31T12:09:00.283Z,99297.66
2019-01-31T12:11:28.616Z,99296.91
2019-01-31T12:13:57.060Z,99301.25
2019-01-31T12:16:25.739Z,99298.97
2019-01-31T12:18:54.106Z,99289.63
2019-01-31T12:21:22.454Z,99287.70
2019-01-31T12:23:50.804Z,99289.52
2019-01-31T12:26:19.166Z,99285.52
2019-01-31T12:28:47.570Z,99279.70
2019-01-31T12:31:15.903Z,99280.27
2019-01-31T12:33:44.282Z,99277.95
2019-01-31T12:36:12.671Z,99279.55
2019-01-31T12:38:41.039Z,99274.23
2019-01-31T12:41:09.374Z,99277.28
2019-01-31T12:43:37.831Z,99281.69
2019-01-31T12:46:06.182Z,99274.23
2019-01-31T12:48:34.523Z,99273.60
2019-01-31T12:51:02.972Z,99268.13
2019-01-31T12:53:31.311Z,99265.36
2019-01-31T12:55:59.664Z,99260.03
2019-01-31T12:58:33.546Z,99260.27
2019-01-31T13:00:58.221Z,99260.41
2019-01-31T13:03:26.641Z,99253.31
2019-01-31T13:05:55.054Z,99256.23
2019-01-31T13:08:23.475Z,99258.11
2019-01-31T13:10:51.836Z,99253.35
2019-01-31T13:13:20.218Z,99248.66
2019-01-31T13:15:48.572Z,99247.77
2019-01-31T13:18:16.901Z,99240.17
2019-01-31T13:20:45.262Z,99244.64
2019-01-31T13:23:13.620Z,99231.68
2019-01-31T13:25:42.007Z,99236.16
2019-01-31T13:28:10.345Z,99236.80
2019-01-31T13:30:38.801Z,99234.62
2019-01-31T13:33:07.167Z,99232.36
2019-01-31T13:35:35.547Z,99237.22
2019-01-31T13:38:04.315Z,99236.69
2019-01-31T13:40:32.739Z,99233.38
2019-01-31T13:43:01.129Z,99230.11
2019-01-31T13:45:31.895Z,99228.55
2019-01-31T13:48:02.007Z,99227.52
2019-01-31T13:50:30.546Z,99226.28
2019-01-31T13:52:58.908Z,99231.71
2019-01-31T13:55:29.978Z,99225.78
2019-01-31T13:57:58.429Z,99225.70
2019-01-31T14:00:26.810Z,99231.21
2019-01-31T14:02:55.179Z,99233.70
2019-01-31T14:05:24.483Z,99232.14
2019-01-31T14:07:53.055Z,99235.73
2019-01-31T14:10:27.420Z,99227.38
2019-01-31T14:12:56.057Z,99238.96
2019-01-31T14:15:33.479Z,99232.00
2019-01-31T14:17:57.470Z,99225.92
2019-01-31T14:20:27.489Z,99231.86
2019-01-31T14:22:55.835Z,99226.38
2019-01-31T14:25:24.172Z,99224.53
2019-01-31T14:27:52.597Z,99220.45
2019-01-31T14:30:32.121Z,99221.34
2019-01-31T14:33:00.988Z,99218.63
2019-01-31T14:35:29.977Z,99227.98
2019-01-31T14:37:58.332Z,99227.41
2019-01-31T14:40:26.837Z,99222.08
2019-01-31T14:42:55.360Z,99227.69
2019-01-31T14:45:23.700Z,99229.47
2019-01-31T14:47:52.036Z,99223.60
2019-01-31T14:50:29.365Z,99219.38
2019-01-31T14:52:57.717Z,99223.24
2019-01-31T14:55:26.071Z,99225.73
2019-01-31T14:57:54.518Z,99228.58
2019-01-31T15:00:28.395Z,99227.19
2019-01-31T15:02:57.159Z,99230.25
2019-01-31T15:05:25.567Z,99224.85
2019-01-31T15:07:53.920Z,99225.99
2019-01-31T15:10:25.073Z,99225.17
2019-01-31T15:12:53.404Z,99226.88
2019-01-31T15:15:23.499Z,99224.61
2019-01-31T15:17:53.149Z,99223.29
2019-01-31T15:20:38.099Z,99226.59
2019-01-31T15:23:03.537Z,99221.30
2019-01-31T15:25:32.019Z,99226.70
2019-01-31T15:28:00.423Z,99225.89
2019-01-31T15:30:34.015Z,99219.89
2019-01-31T15:33:03.601Z,99230.08
2019-01-31T15:35:32.047Z,99239.42
2019-01-31T15:38:00.407Z,99236.41
2019-01-31T15:40:37.363Z,99239.31
2019-01-31T15:43:05.739Z,99233.30
2019-01-31T15:45:34.112Z,99232.28
2019-01-31T15:48:02.521Z,99230.89
2019-01-31T15:50:30.879Z,99231.49
2019-01-31T15:52:59.225Z,99232.13
2019-01-31T15:55:28.119Z,99236.63
2019-01-31T15:57:56.571Z,99233.17
2019-01-31T16:00:44.276Z,99214.77
2019-01-31T16:03:19.698Z,99233.87
2019-01-31T16:05:48.415Z,99235.23
2019-01-31T16:08:16.844Z,99238.84
2019-01-31T16:10:45.216Z,99238.55
2019-01-31T16:13:13.607Z,99232.41
2019-01-31T16:15:42.072Z,99240.12
2019-01-31T16:18:11.622Z,99244.05
2019-01-31T16:20:39.966Z,99240.88
2019-01-31T16:23:08.758Z,99237.58
2019-01-31T16:25:37.228Z,99240.66
2019-01-31T16:28:05.951Z,99243.69
2019-01-31T16:30:34.493Z,99235.41
2019-01-31T16:33:03.003Z,99236.86
2019-01-31T16:35:31.597Z,99237.27
2019-01-31T16:37:59.950Z,99236.97
2019-01-31T16:40:28.419Z,99236.49
2019-01-31T16:42:56.727Z,99240.06
2019-01-31T16:45:25.254Z,99237.29
2019-01-31T16:47:53.662Z,99232.34
2019-01-31T16:50:23.673Z,99231.30
2019-01-31T16:52:52.011Z,99229.27
2019-01-31T16:55:23.455Z,99224.02
2019-01-31T16:57:52.116Z,99228.30
2019-01-31T17:00:29.978Z,99209.52
2019-01-31T17:02:58.519Z,99230.53
2019-01-31T17:05:31.559Z,99229.90
2019-01-31T17:07:59.903Z,99236.50
2019-01-31T17:10:28.298Z,99232.63
2019-01-31T17:12:56.706Z,99229.52
2019-01-31T17:15:25.051Z,99227.97
2019-01-31T17:17:53.403Z,99229.77
2019-01-31T17:20:30.781Z,99216.52
2019-01-31T17:22:59.120Z,99213.74
2019-01-31T17:25:27.460Z,99214.44
2019-01-31T17:27:55.811Z,99209.68
2019-01-31T17:30:25.810Z,99212.56
2019-01-31T17:32:54.310Z,99206.56
2019-01-31T17:35:22.667Z,99206.06
2019-01-31T17:37:51.042Z,99199.56
2019-01-31T17:40:26.703Z,99196.04
2019-01-31T17:42:55.028Z,99196.59
2019-01-31T17:45:30.634Z,99199.11
2019-01-31T17:47:53.570Z,99195.74
2019-01-31T17:50:21.952Z,99195.39
2019-01-31T17:52:50.298Z,99194.86
2019-01-31T17:55:20.805Z,99196.98
2019-01-31T17:57:49.340Z,99200.55
2019-01-31T18:00:24.954Z,99201.64
2019-01-31T18:02:53.388Z,99205.17
2019-01-31T18:05:21.737Z,99200.25
2019-01-31T18:07:50.200Z,99200.99
2019-01-31T18:10:20.878Z,99198.91
2019-01-31T18:12:49.246Z,99199.80
2019-01-31T18:15:17.804Z,99204.61
2019-01-31T18:17:46.136Z,99197.91
2019-01-31T18:20:19.095Z,99205.85
2019-01-31T18:22:47.469Z,99198.61
2019-01-31T18:25:15.999Z,99200.39
2019-01-31T18:27:44.372Z,99199.11
2019-01-31T18:30:21.364Z,99197.28
2019-01-31T18:32:49.726Z,99195.59
2019-01-31T18:35:18.072Z,99197.83
2019-01-31T18:37:46.443Z,99198.82
2019-01-31T18:40:23.304Z,99198.42
2019-01-31T18:42:51.675Z,99198.02
2019-01-31T18:45:22.157Z,99203.63
2019-01-31T18:47:50.588Z,99191.92
2019-01-31T18:50:22.241Z,99197.92
2019-01-31T18:52:50.643Z,99191.88
2019-01-31T18:55:18.993Z,99188.16
2019-01-31T18:57:47.346Z,99193.27
2019-01-31T19:00:23.139Z,99185.32
2019-01-31T19:02:51.588Z,99187.25
2019-01-31T19:05:19.937Z,99188.64
2019-01-31T19:07:48.355Z,99184.23
2019-01-31T19:10:16.774Z,99185.52
2019-01-31T19:12:45.249Z,99192.96
2019-01-31T19:15:16.520Z,99192.66
2019-01-31T19:17:45.027Z,99199.21
2019-01-31T19:20:16.758Z,99193.72
2019-01-31T19:22:45.094Z,99198.22
2019-01-31T19:25:13.698Z,99195.09
2019-01-31T19:27:42.063Z,99193.37
2019-01-31T19:30:16.778Z,99192.67
2019-01-31T19:32:44.712Z,99189.30
2019-01-31T19:35:13.472Z,99188.27
2019-01-31T19:37:41.915Z,99189.20
2019-01-31T19:40:24.918Z,99185.34
2019-01-31T19:42:53.656Z,99182.25
2019-01-31T19:45:27.430Z,99186.77
2019-01-31T19:47:55.822Z,99185.03
2019-01-31T19:50:24.151Z,99182.90
2019-01-31T19:52:52.726Z,99181.84
2019-01-31T19:55:21.096Z,99177.05
2019-01-31T19:57:49.508Z,99173.63
2019-01-31T20:00:20.867Z,99163.52
2019-01-31T20:02:49.285Z,99158.37
2019-01-31T20:05:17.594Z,99156.23
2019-01-31T20:07:46.260Z,99155.34
2019-01-31T20:10:17.891Z,99161.98
2019-01-31T20:12:46.301Z,99164.12
2019-01-31T20:15:14.657Z,99160.59
2019-01-31T20:17:43.033Z,99158.17
2019-01-31T20:20:14.786Z,99159.16
2019-01-31T20:22:43.119Z,99156.27
2019-01-31T20:25:12.255Z,99159.38
2019-01-31T20:27:40.662Z,99156.22
2019-01-31T20:30:15.542Z,99156.25
2019-01-31T20:32:43.972Z,99150.11
2019-01-31T20:35:17.697Z,99161.80
2019-01-31T20:37:46.245Z,99160.25
2019-01-31T20:40:17.307Z,99153.21
2019-01-31T20:42:45.651Z,99164.70
2019-01-31T20:45:15.547Z,99157.47
2019-01-31T20:47:43.910Z,99159.10
2019-01-31T20:50:19.241Z,99157.67
2019-01-31T20:52:47.668Z,99153.56
2019-01-31T20:55:16.401Z,99148.13
2019-01-31T20:57:45.036Z,99149.09
2019-01-31T21:00:18.476Z,99144.28
2019-01-31T21:02:46.867Z,99151.31
2019-01-31T21:05:15.489Z,99146.86
2019-01-31T21:07:43.899Z,99142.06
2019-01-31T21:10:12.226Z,99139.03
2019-01-31T21:12:40.645Z,99134.03
2019-01-31T21:15:13.061Z,99131.16
2019-01-31T21:17:41.745Z,99125.95
2019-01-31T21:20:12.332Z,99129.47
2019-01-31T21:22:40.730Z,99127.52
2019-01-31T21:25:12.359Z,99125.20
2019-01-31T21:27:40.704Z,99131.01
2019-01-31T21:30:12.314Z,99129.06
2019-01-31T21:32:40.703Z,99111.71
2019-01-31T21:35:10.383Z,99117.71
2019-01-31T21:37:38.750Z,99115.38
2019-01-31T21:40:12.716Z,99114.30
2019-01-31T21:42:41.347Z,99111.77
2019-01-31T21:45:12.786Z,99110.70
2019-01-31T21:47:41.198Z,99104.77
2019-01-31T21:50:15.519Z,99105.16
2019-01-31T21:52:44.152Z,99102.00
2019-01-31T21:55:13.796Z,99101.90
2019-01-31T21:57:42.154Z,99100.17
2019-01-31T22:00:22.985Z,99092.25
2019-01-31T22:02:51.370Z,99096.22
2019-01-31T22:05:19.732Z,99093.20
2019-01-31T22:07:48.083Z,99092.41
2019-01-31T22:10:18.633Z,99095.13
2019-01-31T22:12:47.127Z,99090.77
2019-01-31T22:15:18.154Z,99092.39
2019-01-31T22:17:46.454Z,99092.63
2019-01-31T22:20:14.831Z,99088.81
2019-01-31T22:22:43.202Z,99086.72
2019-01-31T22:25:16.748Z,99083.41
2019-01-31T22:27:45.114Z,99077.10
2019-01-31T22:30:19.878Z,99072.70
2019-01-31T22:32:47.592Z,99069.02
2019-01-31T22:35:15.946Z,99069.06
2019-01-31T22:37:44.678Z,99067.33
2019-01-31T22:40:15.167Z,99063.46
2019-01-31T22:42:43.566Z,99062.27
2019-01-31T22:45:14.439Z,99066.02
2019-01-31T22:47:43.530Z,99058.25
2019-01-31T22:50:14.516Z,99054.38
2019-01-31T22:52:42.878Z,99054.92
2019-01-31T22:55:13.606Z,99049.16
2019-01-31T22:57:41.960Z,99042.83
2019-01-31T23:00:56.908Z,99044.64
2019-01-31T23:03:25.270Z,99039.50
2019-01-31T23:05:53.639Z,99039.19
2019-01-31T23:08:21.981Z,99032.85
2019-01-31T23:10:50.507Z,99036.02
2019-01-31T23:13:18.899Z,99032.70
2019-01-31T23:15:47.244Z,99026.70
2019-01-31T23:18:15.694Z,99028.87
2019-01-31T23:20:44.614Z,99019.36
2019-01-31T23:23:13.125Z,99018.66
2019-01-31T23:25:41.495Z,99016.08
2019-01-31T23:28:09.827Z,99012.91
2019-01-31T23:30:38.178Z,99013.48
2019-01-31T23:33:06.532Z,99008.92
2019-01-31T23:35:34.896Z,99004.01
2019-01-31T23:38:03.315Z,98989.40
2019-01-31T23:40:31.686Z,98997.67
2019-01-31T23:43:00.052Z,98999.60
2019-01-31T23:45:28.426Z,99003.66
2019-01-31T23:47:56.795Z,98977.30
2019-01-31T23:50:25.177Z,99006.12
2019-01-31T23:52:53.662Z,99005.97
2019-01-31T23:55:22.035Z,99005.81
2019-01-31T23:57:50.403Z,99012.88
